Time,TemperatureF,DewpointF,PressureIn,WindDirection,WindDirectionDegrees,WindSpeedMPH,WindSpeedGustMPH,Humidity,HourlyPrecipIn,Conditions,Clouds,dailyrainin,SoftwareType,DateUTC
2013-08-28 00:09:00,73.5,71.0,29.84,NNE,19,0.0,0.0,90,0.00,,,0.00,weatherlink.com 1.10,2013-08-28 04:09:00,
2013-08-28 00:24:00,73.5,71.0,29.84,NNE,19,0.0,0.0,90,0.00,,,0.00,weatherlink.com 1.10,2013-08-28 04:24:00,
2013-08-28 00:39:00,73.5,70.0,29.84,NNE,19,0.0,0.0,89,0.00,,,0.00,weatherlink.com 1.10,2013-08-28 04:39:00,
2013-08-28 00:54:00,73.4,70.0,29.84,NNE,19,0.0,0.0,89,0.00,,,0.00,weatherlink.com 1.10,2013-08-28 04:54:00,
2013-08-28 01:09:00,73.2,70.0,29.83,NNE,19,0.0,0.0,89,0.00,,,0.00,weatherlink.com 1.10,2013-08-28 05:09:00,
2013-08-28 01:24:00,72.9,70.0,29.82,NNE,19,0.0,0.0,89,0.00,,,0.00,weatherlink.com 1.10,2013-08-28 05:24:00,
2013-08-28 01:39:00,72.5,70.0,29.82,NNE,19,0.0,0.0,90,0.00,,,0.00,weatherlink.com 1.10,2013-08-28 05:39:00,
2013-08-28 01:54:00,72.1,69.0,29.82,NNE,19,0.0,0.0,90,0.00,,,0.00,weatherlink.com 1.10,2013-08-28 05:54:00,
2013-08-28 02:09:00,71.8,69.0,29.82,NNE,19,0.0,0.0,91,0.00,,,0.00,weatherlink.com 1.10,2013-08-28 06:09:00,
2013-08-28 02:24:00,71.5,69.0,29.81,NNE,19,0.0,0.0,92,0.00,,,0.00,weatherlink.com 1.10,2013-08-28 06:24:00,
2013-08-28 02:39:00,71.2,69.0,29.81,NNE,19,0.0,0.0,92,0.00,,,0.00,weatherlink.com 1.10,2013-08-28 06:39:00,
2013-08-28 02:54:00,70.8,68.0,29.81,NNE,19,0.0,0.0,92,0.00,,,0.00,weatherlink.com 1.10,2013-08-28 06:54:00,
2013-08-28 03:09:00,70.6,69.0,29.81,NNE,19,0.0,0.0,93,0.00,,,0.00,weatherlink.com 1.10,2013-08-28 07:09:00,
2013-08-28 03:24:00,70.3,68.0,29.80,NNE,19,0.0,0.0,93,0.00,,,0.00,weatherlink.com 1.10,2013-08-28 07:24:00,
2013-08-28 03:39:00,70.0,68.0,29.81,NNE,19,0.0,0.0,94,0.00,,,0.00,weatherlink.com 1.10,2013-08-28 07:39:00,
2013-08-28 03:54:00,69.9,68.0,29.80,NNE,19,0.0,0.0,94,0.00,,,0.00,weatherlink.com 1.10,2013-08-28 07:54:00,
2013-08-28 04:09:00,69.8,68.0,29.80,NNE,19,0.0,0.0,94,0.00,,,0.00,weatherlink.com 1.10,2013-08-28 08:09:00,
2013-08-28 04:24:00,69.7,68.0,29.80,NNE,19,0.0,0.0,95,0.00,,,0.00,weatherlink.com 1.10,2013-08-28 08:24:00,
2013-08-28 04:40:00,69.5,68.0,29.80,NNE,19,0.0,0.0,94,0.00,,,0.00,weatherlink.com 1.10,2013-08-28 08:40:00,
2013-08-28 04:55:00,69.2,68.0,29.80,NNE,19,0.0,0.0,95,0.00,,,0.00,weatherlink.com 1.10,2013-08-28 08:55:00,
2013-08-28 05:10:00,69.0,68.0,29.80,NNE,19,0.0,0.0,95,0.00,,,0.00,weatherlink.com 1.10,2013-08-28 09:10:00,
2013-08-28 05:25:00,69.0,68.0,29.80,NNE,19,0.0,0.0,96,0.00,,,0.00,weatherlink.com 1.10,2013-08-28 09:25:00,
2013-08-28 05:40:00,69.1,68.0,29.80,NNE,19,0.0,0.0,96,0.00,,,0.00,weatherlink.com 1.10,2013-08-28 09:40:00,
2013-08-28 05:55:00,69.0,68.0,29.81,NNE,19,0.0,0.0,96,0.00,,,0.00,weatherlink.com 1.10,2013-08-28 09:55:00,
2013-08-28 06:10:00,69.0,68.0,29.81,NNE,19,0.0,0.0,96,0.00,,,0.00,weatherlink.com 1.10,2013-08-28 10:10:00,
2013-08-28 06:25:00,68.8,67.0,29.82,NNE,19,0.0,0.0,95,0.00,,,0.00,weatherlink.com 1.10,2013-08-28 10:25:00,
2013-08-28 06:40:00,68.6,68.0,29.82,NNE,19,0.0,0.0,96,0.00,,,0.00,weatherlink.com 1.10,2013-08-28 10:40:00,
2013-08-28 06:55:00,68.6,68.0,29.82,NNE,19,0.0,0.0,96,0.00,,,0.00,weatherlink.com 1.10,2013-08-28 10:55:00,
2013-08-28 07:10:00,69.1,68.0,29.81,NNE,19,0.0,0.0,97,0.00,,,0.00,weatherlink.com 1.10,2013-08-28 11:10:00,
2013-08-28 07:25:00,70.0,69.0,29.82,NNE,19,0.0,1.0,97,0.00,,,0.00,weatherlink.com 1.10,2013-08-28 11:25:00,
2013-08-28 07:40:00,70.7,70.0,29.82,NNE,19,0.0,0.0,96,0.00,,,0.00,weatherlink.com 1.10,2013-08-28 11:40:00,
2013-08-28 07:55:00,71.5,70.0,29.82,NNE,19,0.0,0.0,94,0.00,,,0.00,weatherlink.com 1.10,2013-08-28 11:55:00,
2013-08-28 08:10:00,72.8,70.0,29.82,NNE,17,1.0,2.0,92,0.00,,,0.00,weatherlink.com 1.10,2013-08-28 12:10:00,
2013-08-28 08:25:00,75.3,72.0,29.82,NNW,344,0.0,2.0,89,0.00,,,0.00,weatherlink.com 1.10,2013-08-28 12:25:00,
2013-08-28 08:40:00,78.2,72.0,29.81,East,98,0.0,1.0,82,0.00,,,0.00,weatherlink.com 1.10,2013-08-28 12:40:00,
2013-08-28 08:55:00,79.4,72.0,29.82,East,98,0.0,1.0,78,0.00,,,0.00,weatherlink.com 1.10,2013-08-28 12:55:00,
2013-08-28 09:10:00,80.0,73.0,29.82,East,98,0.0,0.0,78,0.00,,,0.00,weatherlink.com 1.10,2013-08-28 13:10:00,
2013-08-28 09:25:00,80.5,73.0,29.82,ESE,103,0.0,0.0,77,0.00,,,0.00,weatherlink.com 1.10,2013-08-28 13:25:00,
2013-08-28 09:40:00,81.4,73.0,29.82,ESE,103,0.0,2.0,75,0.00,,,0.00,weatherlink.com 1.10,2013-08-28 13:40:00,
2013-08-28 09:55:00,81.7,73.0,29.81,ESE,103,0.0,1.0,74,0.00,,,0.00,weatherlink.com 1.10,2013-08-28 13:55:00,
2013-08-28 10:10:00,81.8,73.0,29.82,ESE,103,0.0,1.0,74,0.00,,,0.00,weatherlink.com 1.10,2013-08-28 14:10:00,
2013-08-28 10:25:00,81.4,73.0,29.82,ESE,103,0.0,1.0,76,0.00,,,0.00,weatherlink.com 1.10,2013-08-28 14:25:00,
2013-08-28 10:40:00,81.9,73.0,29.82,ESE,103,0.0,1.0,74,0.00,,,0.00,weatherlink.com 1.10,2013-08-28 14:40:00,
2013-08-28 10:55:00,82.2,73.0,29.82,ESE,103,0.0,0.0,74,0.00,,,0.00,weatherlink.com 1.10,2013-08-28 14:55:00,
2013-08-28 11:10:00,82.7,74.0,29.82,ESE,103,0.0,0.0,75,0.00,,,0.00,weatherlink.com 1.10,2013-08-28 15:10:00,
2013-08-28 11:25:00,83.4,75.0,29.82,SE,137,0.0,1.0,75,0.00,,,0.00,weatherlink.com 1.10,2013-08-28 15:25:00,
2013-08-28 11:40:00,85.0,74.0,29.81,SSE,157,1.0,2.0,69,0.00,,,0.00,weatherlink.com 1.10,2013-08-28 15:40:00,
2013-08-28 11:55:00,85.0,73.0,29.80,South,182,1.0,3.0,67,0.00,,,0.00,weatherlink.com 1.10,2013-08-28 15:55:00,
2013-08-28 12:10:00,84.5,74.0,29.81,SSW,204,0.0,1.0,70,0.00,,,0.00,weatherlink.com 1.10,2013-08-28 16:10:00,
2013-08-28 12:25:00,84.0,73.0,29.80,WSW,251,0.0,1.0,70,0.00,,,0.00,weatherlink.com 1.10,2013-08-28 16:25:00,
2013-08-28 12:40:00,82.7,73.0,29.80,West,261,1.0,3.0,72,0.00,,,0.00,weatherlink.com 1.10,2013-08-28 16:40:00,
2013-08-28 12:55:00,80.9,72.0,29.81,NE,44,0.0,7.0,75,0.00,,,0.00,weatherlink.com 1.10,2013-08-28 16:55:00,
2013-08-28 13:10:00,79.5,72.0,29.80,SW,217,0.0,7.0,78,0.00,,,0.00,weatherlink.com 1.10,2013-08-28 17:10:00,
2013-08-28 13:25:00,78.7,73.0,29.81,West,280,0.0,1.0,83,0.00,,,0.00,weatherlink.com 1.10,2013-08-28 17:25:00,
2013-08-28 13:40:00,77.8,73.0,29.82,WNW,290,0.0,3.0,85,0.01,,,0.01,weatherlink.com 1.10,2013-08-28 17:40:00,
2013-08-28 13:55:00,77.0,73.0,29.82,WNW,287,0.0,2.0,87,0.01,,,0.01,weatherlink.com 1.10,2013-08-28 17:55:00,
2013-08-28 14:10:00,76.3,73.0,29.82,NNW,329,0.0,4.0,88,0.01,,,0.01,weatherlink.com 1.10,2013-08-28 18:10:00,
2013-08-28 14:25:00,75.8,72.0,29.82,WNW,288,0.0,3.0,88,0.01,,,0.01,weatherlink.com 1.10,2013-08-28 18:25:00,
2013-08-28 14:40:00,75.5,72.0,29.82,NE,42,0.0,0.0,89,0.00,,,0.01,weatherlink.com 1.10,2013-08-28 18:40:00,
2013-08-28 14:55:00,75.5,73.0,29.82,NE,42,0.0,0.0,90,0.01,,,0.02,weatherlink.com 1.10,2013-08-28 18:55:00,
2013-08-28 15:10:00,75.5,73.0,29.82,NE,42,0.0,0.0,90,0.01,,,0.02,weatherlink.com 1.10,2013-08-28 19:10:00,
2013-08-28 15:25:00,75.3,72.0,29.81,NE,42,0.0,1.0,90,0.01,,,0.02,weatherlink.com 1.10,2013-08-28 19:25:00,
2013-08-28 15:40:00,75.3,73.0,29.81,NE,42,0.0,0.0,91,0.01,,,0.02,weatherlink.com 1.10,2013-08-28 19:40:00,
2013-08-28 15:55:00,75.2,73.0,29.80,NE,42,0.0,0.0,92,0.01,,,0.03,weatherlink.com 1.10,2013-08-28 19:55:00,
2013-08-28 16:10:00,75.0,73.0,29.80,NW,323,0.0,2.0,93,0.02,,,0.04,weatherlink.com 1.10,2013-08-28 20:10:00,
2013-08-28 16:25:00,74.9,73.0,29.79,NW,321,0.0,2.0,94,0.02,,,0.04,weatherlink.com 1.10,2013-08-28 20:25:00,
2013-08-28 16:41:00,74.9,73.0,29.80,WNW,300,0.0,2.0,94,0.02,,,0.04,weatherlink.com 1.10,2013-08-28 20:41:00,
2013-08-28 16:55:00,74.8,73.0,29.80,WNW,300,0.0,1.0,94,0.01,,,0.04,weatherlink.com 1.10,2013-08-28 20:55:00,
2013-08-28 17:10:00,75.0,73.0,29.79,WNW,300,0.0,0.0,94,0.00,,,0.04,weatherlink.com 1.10,2013-08-28 21:10:00,
2013-08-28 17:25:00,75.1,73.0,29.79,NW,311,0.0,1.0,93,0.00,,,0.04,weatherlink.com 1.10,2013-08-28 21:25:00,
2013-08-28 17:40:00,75.3,73.0,29.80,NW,311,0.0,0.0,93,0.00,,,0.04,weatherlink.com 1.10,2013-08-28 21:40:00,
2013-08-28 17:55:00,75.4,73.0,29.79,NW,311,0.0,0.0,93,0.00,,,0.04,weatherlink.com 1.10,2013-08-28 21:55:00,
2013-08-28 18:10:00,75.5,73.0,29.79,NW,311,0.0,0.0,93,0.00,,,0.04,weatherlink.com 1.10,2013-08-28 22:10:00,
2013-08-28 18:25:00,75.4,73.0,29.80,NW,311,0.0,0.0,92,0.00,,,0.04,weatherlink.com 1.10,2013-08-28 22:25:00,
2013-08-28 18:40:00,75.4,73.0,29.80,NW,311,0.0,0.0,92,0.00,,,0.04,weatherlink.com 1.10,2013-08-28 22:40:00,
2013-08-28 18:55:00,75.2,73.0,29.80,NW,311,0.0,0.0,93,0.00,,,0.04,weatherlink.com 1.10,2013-08-28 22:55:00,
2013-08-28 19:10:00,75.1,73.0,29.80,NW,311,0.0,0.0,93,0.00,,,0.04,weatherlink.com 1.10,2013-08-28 23:10:00,
2013-08-28 19:26:00,74.9,73.0,29.80,NW,311,0.0,0.0,93,0.00,,,0.04,weatherlink.com 1.10,2013-08-28 23:26:00,
2013-08-28 19:41:00,74.7,73.0,29.80,NW,311,0.0,0.0,93,0.00,,,0.04,weatherlink.com 1.10,2013-08-28 23:41:00,
2013-08-28 19:56:00,74.4,73.0,29.80,NW,311,0.0,0.0,94,0.00,,,0.04,weatherlink.com 1.10,2013-08-28 23:56:00,
2013-08-28 20:11:00,74.2,72.0,29.80,NW,311,0.0,0.0,94,0.00,,,0.04,weatherlink.com 1.10,2013-08-29 00:11:00,
2013-08-28 20:26:00,73.9,72.0,29.80,NW,311,0.0,0.0,94,0.00,,,0.04,weatherlink.com 1.10,2013-08-29 00:26:00,
2013-08-28 20:41:00,73.7,72.0,29.79,NW,311,0.0,0.0,95,0.00,,,0.04,weatherlink.com 1.10,2013-08-29 00:41:00,
2013-08-28 20:56:00,73.5,72.0,29.80,NW,311,0.0,0.0,95,0.00,,,0.04,weatherlink.com 1.10,2013-08-29 00:56:00,
2013-08-28 21:11:00,73.4,72.0,29.81,NW,311,0.0,0.0,96,0.00,,,0.04,weatherlink.com 1.10,2013-08-29 01:11:00,
2013-08-28 21:26:00,73.4,72.0,29.82,NW,311,0.0,0.0,96,0.00,,,0.04,weatherlink.com 1.10,2013-08-29 01:26:00,
2013-08-28 21:41:00,73.3,72.0,29.83,NW,311,0.0,0.0,96,0.00,,,0.04,weatherlink.com 1.10,2013-08-29 01:41:00,
2013-08-28 21:56:00,73.3,72.0,29.83,NW,311,0.0,0.0,96,0.00,,,0.04,weatherlink.com 1.10,2013-08-29 01:56:00,
2013-08-28 22:11:00,73.2,72.0,29.83,NW,311,0.0,0.0,96,0.00,,,0.04,weatherlink.com 1.10,2013-08-29 02:11:00,
2013-08-28 22:26:00,73.1,72.0,29.83,NW,311,0.0,0.0,96,0.00,,,0.04,weatherlink.com 1.10,2013-08-29 02:26:00,
2013-08-28 22:41:00,72.9,72.0,29.83,NW,311,0.0,0.0,96,0.00,,,0.04,weatherlink.com 1.10,2013-08-29 02:41:00,
2013-08-28 22:56:00,72.7,72.0,29.83,NW,311,0.0,0.0,96,0.00,,,0.04,weatherlink.com 1.10,2013-08-29 02:56:00,
2013-08-28 23:11:00,72.4,71.0,29.83,NW,311,0.0,0.0,96,0.00,,,0.04,weatherlink.com 1.10,2013-08-29 03:11:00,
2013-08-28 23:26:00,72.1,71.0,29.83,NW,311,0.0,0.0,96,0.00,,,0.04,weatherlink.com 1.10,2013-08-29 03:26:00,
2013-08-28 23:41:00,71.8,71.0,29.83,NW,311,0.0,0.0,96,0.00,,,0.04,weatherlink.com 1.10,2013-08-29 03:41:00,
2013-08-28 23:56:00,71.9,71.0,29.83,NW,311,0.0,0.0,97,0.00,,,0.04,weatherlink.com 1.10,2013-08-29 03:56:00,